Time;durP1;ratioP1;P1;durP2;ratioP2;P2;SDS_P1;SDS_P2;PMS_P1;PMS_P2;Temp;Humidity;BMP_temperature;BMP_pressure;BME280_temperature;BME280_humidity;BME280_pressure;Samples;Min_cycle;Max_cycle;Signal;HPM_P1;HPM_P2
2022/06/04 00:00:50;;;;;;;4.00;3.70;;;;;;;18.29;54.30;100373.25;1687973;83;21016;-65
2022/06/04 00:03:18;;;;;;;9.75;4.10;;;;;;;18.26;54.22;100377.42;1700154;82;21585;-65
2022/06/04 00:05:51;;;;;;;4.27;3.87;;;;;;;18.25;54.41;100381.90;1693402;83;21541;-66
2022/06/04 00:08:19;;;;;;;4.08;3.77;;;;;;;18.39;54.15;100383.67;1696952;82;21532;-66
2022/06/04 00:16:24;;;;;;;5.85;4.70;;;;;;;18.40;54.03;100375.20;1683949;83;21482;-67
2022/06/04 00:18:51;;;;;;;4.95;4.55;;;;;;;18.38;53.87;100379.29;1698890;83;21465;-65
2022/06/04 00:21:19;;;;;;;10.35;4.78;;;;;;;18.42;54.11;100382.61;1689039;82;21004;-66
2022/06/04 00:23:45;;;;;;;5.78;4.60;;;;;;;18.57;54.13;100375.45;1700563;82;21668;-66
2022/06/04 00:26:13;;;;;;;3.98;3.70;;;;;;;18.71;54.04;100380.75;1707540;82;21514;-65
2022/06/04 00:28:40;;;;;;;4.62;4.22;;;;;;;18.76;54.18;100374.66;1712287;82;21962;-66
2022/06/04 00:31:07;;;;;;;4.53;3.90;;;;;;;18.77;54.22;100379.02;1674534;84;21562;-65
2022/06/04 00:33:34;;;;;;;5.72;4.03;;;;;;;18.74;54.29;100375.69;1681825;82;20974;-66
2022/06/04 00:36:00;;;;;;;6.35;3.87;;;;;;;18.70;54.36;100371.52;1682210;84;21987;-66
2022/06/04 00:38:29;;;;;;;4.20;3.90;;;;;;;18.64;54.46;100361.64;1674616;83;21056;-66
2022/06/04 00:41:23;;;;;;;5.53;4.05;;;;;;;18.63;54.69;100359.95;1682287;83;21460;-69
2022/06/04 00:44:07;;;;;;;4.92;3.70;;;;;;;18.84;54.20;100354.20;1680798;83;21471;-66
2022/06/04 00:46:47;;;;;;;4.47;4.08;;;;;;;18.84;53.87;100349.72;1657359;84;21486;-65
2022/06/04 00:49:18;;;;;;;4.67;3.98;;;;;;;18.85;53.61;100346.56;1680562;82;21809;-66
2022/06/04 00:51:49;;;;;;;4.72;3.90;;;;;;;18.77;53.54;100340.88;1670758;84;21099;-66
2022/06/04 00:54:16;;;;;;;4.70;4.30;;;;;;;18.74;53.50;100344.61;1679102;84;21612;-66
2022/06/04 00:57:22;;;;;;;4.97;3.70;;;;;;;18.66;53.29;100350.41;1673818;84;21679;-66
2022/06/04 01:00:00;;;;;;;9.18;3.65;;;;;;;18.57;53.77;100348.38;1679216;84;21427;-65
2022/06/04 01:03:01;;;;;;;3.80;3.45;;;;;;;18.63;54.11;100343.13;1669966;84;22211;-65
2022/06/04 01:05:33;;;;;;;4.17;3.77;;;;;;;18.62;54.22;100350.23;1684024;83;21487;-65
2022/06/04 01:08:40;;;;;;;4.17;3.87;;;;;;;18.57;54.31;100353.70;1673153;83;21594;-67
2022/06/04 01:12:09;;;;;;;4.67;3.75;;;;;;;18.48;54.31;100348.96;1675459;82;21645;-65
2022/06/04 01:14:27;;;;;;;4.58;4.17;;;;;;;18.42;54.13;100345.34;1668056;83;21002;-66
2022/06/04 01:17:18;;;;;;;4.17;3.85;;;;;;;18.25;54.49;100350.41;1675959;83;20961;-68
2022/06/04 01:20:04;;;;;;;5.30;3.50;;;;;;;18.28;54.77;100351.56;1657988;84;21450;-66
2022/06/04 01:23:13;;;;;;;5.10;3.90;;;;;;;18.28;54.73;100344.91;1679831;83;21556;-66
2022/06/04 01:26:21;;;;;;;4.62;4.08;;;;;;;18.32;54.51;100345.56;1681353;83;21538;-65
2022/06/04 01:28:54;;;;;;;5.43;4.20;;;;;;;18.23;54.25;100354.98;1667479;83;21624;-65
2022/06/04 01:31:27;;;;;;;5.30;3.90;;;;;;;18.24;54.09;100344.73;1673384;83;21805;-64
2022/06/04 01:33:58;;;;;;;5.35;4.20;;;;;;;18.26;53.76;100350.32;1679564;83;21577;-65
2022/06/04 01:36:35;;;;;;;5.17;4.03;;;;;;;18.23;53.78;100345.21;1662205;83;21589;-65
2022/06/04 01:39:13;;;;;;;4.75;3.65;;;;;;;18.27;54.21;100348.51;1679234;83;21081;-64
2022/06/04 01:41:43;;;;;;;4.03;3.72;;;;;;;18.35;54.65;100350.70;1694496;82;21528;-65
2022/06/04 01:44:35;;;;;;;4.12;3.72;;;;;;;18.28;54.99;100344.42;1693718;83;22098;-65
2022/06/04 01:47:06;;;;;;;4.37;3.98;;;;;;;18.13;55.45;100349.39;1702349;82;21548;-64
2022/06/04 01:49:45;;;;;;;4.28;3.98;;;;;;;18.11;55.67;100349.13;1706049;82;21501;-64
2022/06/04 01:52:20;;;;;;;4.83;4.47;;;;;;;18.12;55.47;100354.35;1700351;83;21574;-65
2022/06/04 01:54:55;;;;;;;5.50;4.17;;;;;;;18.10;55.36;100349.58;1694614;83;20995;-67
2022/06/04 01:57:38;;;;;;;6.42;3.95;;;;;;;18.19;55.34;100342.83;1694824;82;21977;-65
2022/06/04 02:01:19;;;;;;;4.60;4.20;;;;;;;17.32;59.66;100332.61;1795662;79;22908;-66
2022/06/04 02:03:51;;;;;;;4.95;4.55;;;;;;;18.36;55.54;100319.97;1776385;79;21179;-66
2022/06/04 02:06:21;;;;;;;6.12;4.92;;;;;;;18.08;56.32;100316.89;1767533;79;21845;-65
2022/06/04 02:08:56;;;;;;;4.72;4.40;;;;;;;17.97;56.73;100320.25;1763538;80;21033;-66
2022/06/04 02:11:24;;;;;;;4.70;4.30;;;;;;;18.11;56.02;100335.33;1771412;79;21549;-63
2022/06/04 02:13:53;;;;;;;4.90;4.50;;;;;;;18.06;55.92;100342.29;1765926;79;21726;-63
2022/06/04 02:16:41;;;;;;;5.78;4.33;;;;;;;17.59;57.73;100343.37;1763630;79;21040;-65
2022/06/04 02:19:08;;;;;;;4.75;4.35;;;;;;;18.03;57.43;100341.14;1764166;79;21592;-65
2022/06/04 02:21:35;;;;;;;4.70;4.33;;;;;;;18.42;55.83;100339.56;1774337;79;21052;-67
2022/06/04 02:24:02;;;;;;;5.20;3.85;;;;;;;18.44;55.47;100342.98;1772738;79;21389;-67
2022/06/04 02:26:29;;;;;;;5.50;5.00;;;;;;;18.37;55.44;100342.14;1770164;79;20986;-65
2022/06/04 02:28:58;;;;;;;5.08;4.60;;;;;;;18.38;55.47;100344.68;1774720;79;21632;-67
2022/06/04 02:32:08;;;;;;;4.62;4.25;;;;;;;18.52;55.15;100354.46;1763925;80;21565;-66
2022/06/04 02:34:47;;;;;;;4.95;4.45;;;;;;;18.57;55.41;100357.69;1766730;80;21537;-65
2022/06/04 02:37:22;;;;;;;5.53;4.72;;;;;;;18.52;55.46;100358.94;1770226;79;21494;-68
2022/06/04 02:39:57;;;;;;;5.85;4.72;;;;;;;18.24;56.25;100362.87;1765735;80;21498;-67
2022/06/04 02:42:37;;;;;;;4.33;3.95;;;;;;;18.51;56.21;100355.40;1759084;79;21640;-65
2022/06/04 02:45:26;;;;;;;4.15;3.85;;;;;;;18.65;55.96;100358.03;1766860;79;21974;-66
2022/06/04 02:48:09;;;;;;;4.28;3.98;;;;;;;18.78;56.10;100356.76;1715919;79;21455;-66
2022/06/04 02:50:48;;;;;;;5.17;3.98;;;;;;;18.85;56.47;100354.56;1759065;79;21522;-66
2022/06/04 02:53:15;;;;;;;4.70;4.30;;;;;;;18.94;56.21;100358.44;1769696;80;21570;-68
2022/06/04 02:55:53;;;;;;;3.98;3.75;;;;;;;18.86;56.15;100355.80;1765494;79;21514;-67
2022/06/04 02:58:20;;;;;;;6.00;4.03;;;;;;;18.83;56.16;100361.31;1769893;79;22170;-66
2022/06/04 03:00:48;;;;;;;6.08;4.03;;;;;;;18.86;56.38;100360.28;1768729;80;21554;-67
2022/06/04 03:03:15;;;;;;;4.67;3.80;;;;;;;18.76;56.72;100365.78;1758827;80;20992;-67
2022/06/04 03:05:55;;;;;;;4.60;4.17;;;;;;;18.69;57.02;100364.02;1764916;80;21474;-67
2022/06/04 03:08:22;;;;;;;3.85;3.55;;;;;;;18.67;57.18;100365.93;1762705;80;21045;-67
2022/06/04 03:10:48;;;;;;;4.57;4.17;;;;;;;19.08;56.60;100355.72;1760659;80;21816;-67
2022/06/04 03:13:15;;;;;;;4.92;4.42;;;;;;;19.18;56.09;100365.28;1707713;82;21446;-68
2022/06/04 03:15:42;;;;;;;7.25;4.75;;;;;;;19.25;55.88;100366.09;1766924;80;21671;-68
2022/06/04 03:18:08;;;;;;;4.50;4.20;;;;;;;19.43;55.21;100359.97;1750515;80;21526;-66
2022/06/04 03:20:35;;;;;;;5.05;4.65;;;;;;;19.50;55.13;100356.91;1764478;80;21590;-67
2022/06/04 03:23:02;;;;;;;4.85;4.42;;;;;;;19.45;55.02;100361.20;1768470;80;21788;-67
2022/06/04 03:25:30;;;;;;;5.55;4.30;;;;;;;19.56;54.96;100355.98;1768490;80;21530;-67
2022/06/04 03:27:58;;;;;;;4.05;3.75;;;;;;;19.25;55.72;100363.42;1764339;80;21673;-68
2022/06/04 03:30:26;;;;;;;4.37;3.80;;;;;;;19.33;55.87;100362.91;1762825;80;21481;-67
2022/06/04 03:32:54;;;;;;;4.08;3.77;;;;;;;19.36;55.72;100356.01;1769636;80;21009;-67
2022/06/04 03:35:20;;;;;;;;;;;;;;;19.44;56.01;100348.84;1769518;80;22037;-68
2022/06/04 03:37:47;;;;;;;6.40;3.80;;;;;;;19.55;55.85;100348.96;1756796;80;20647;-67
2022/06/04 03:40:15;;;;;;;4.90;3.62;;;;;;;19.72;55.47;100345.16;1764105;80;21534;-67
2022/06/04 03:42:42;;;;;;;5.70;3.62;;;;;;;19.84;55.64;100352.28;1763585;80;21436;-68
2022/06/04 03:45:10;;;;;;;4.33;3.62;;;;;;;19.95;56.13;100354.20;1760154;80;20974;-68
2022/06/04 03:47:37;;;;;;;3.52;3.27;;;;;;;20.02;56.56;100351.94;1761543;80;21851;-68
2022/06/04 03:50:11;;;;;;;4.60;3.77;;;;;;;20.23;56.48;100352.23;1767172;80;21669;-68
2022/06/04 03:52:40;;;;;;;3.72;3.42;;;;;;;20.33;56.19;100347.08;1767136;80;21511;-68
2022/06/04 03:55:08;;;;;;;4.08;3.50;;;;;;;20.40;56.72;100345.19;1765776;80;21439;-68
2022/06/04 03:57:39;;;;;;;6.47;4.72;;;;;;;20.54;56.41;100356.68;1758216;80;21515;-68
2022/06/04 04:00:19;;;;;;;5.67;4.92;;;;;;;20.67;55.55;100352.66;1766644;80;22195;-68
2022/06/04 04:03:03;;;;;;;5.35;4.95;;;;;;;20.85;54.44;100349.09;1763859;80;21563;-68
2022/06/04 04:05:37;;;;;;;6.50;5.90;;;;;;;20.91;53.78;100358.01;1761962;80;21029;-68
2022/06/04 04:08:06;;;;;;;5.87;5.25;;;;;;;21.00;53.26;100356.83;1765832;80;21033;-67
2022/06/04 04:10:33;;;;;;;5.47;4.97;;;;;;;21.02;52.64;100363.41;1758358;80;21658;-69
2022/06/04 04:13:00;;;;;;;5.58;5.08;;;;;;;21.07;51.72;100364.38;1762484;80;21861;-68
2022/06/04 04:15:27;;;;;;;9.00;4.87;;;;;;;21.15;51.62;100363.30;1758567;80;21112;-69
2022/06/04 04:17:54;;;;;;;5.57;4.60;;;;;;;21.25;51.64;100357.64;1756125;80;21439;-69
2022/06/04 04:20:29;;;;;;;4.60;4.30;;;;;;;21.35;51.36;100361.30;1767290;80;21467;-69
2022/06/04 04:22:56;;;;;;;4.47;3.90;;;;;;;21.47;51.44;100364.04;1763654;80;21630;-68
2022/06/04 04:25:25;;;;;;;4.25;3.85;;;;;;;21.73;51.20;100365.54;1767276;80;22149;-67
2022/06/04 04:27:53;;;;;;;4.08;3.77;;;;;;;21.83;50.81;100365.70;1766498;80;21443;-67
2022/06/04 04:30:23;;;;;;;8.20;3.92;;;;;;;21.91;50.46;100364.59;1727112;82;21483;-68
2022/06/04 04:32:51;;;;;;;4.05;3.65;;;;;;;22.01;50.19;100366.55;1763839;80;21136;-69
2022/06/04 04:35:24;;;;;;;3.95;3.55;;;;;;;21.96;49.81;100364.22;1766079;80;21723;-67
2022/06/04 04:37:51;;;;;;;7.53;4.03;;;;;;;21.95;49.72;100361.20;1762061;80;21931;-67
2022/06/04 04:40:21;;;;;;;4.78;3.95;;;;;;;21.96;49.38;100362.87;1728043;82;21582;-66
2022/06/04 04:42:48;;;;;;;5.20;3.90;;;;;;;21.89;49.35;100361.19;1763080;80;20974;-65
2022/06/04 04:45:16;;;;;;;4.08;3.67;;;;;;;21.94;49.38;100368.84;1764454;80;20974;-66
2022/06/04 04:47:44;;;;;;;3.85;3.62;;;;;;;21.91;49.23;100369.11;1769340;80;20954;-66
2022/06/04 04:50:22;;;;;;;4.40;3.98;;;;;;;21.99;49.48;100370.68;1759448;80;21776;-65
2022/06/04 04:52:49;;;;;;;3.60;3.30;;;;;;;22.13;49.46;100364.22;1753283;80;21453;-69
2022/06/04 04:55:16;;;;;;;4.37;3.67;;;;;;;22.09;49.60;100367.62;1764597;80;21530;-65
2022/06/04 04:57:42;;;;;;;3.72;3.50;;;;;;;22.06;49.83;100367.05;1750701;80;20973;-65
2022/06/04 05:00:10;;;;;;;4.10;3.80;;;;;;;22.06;50.29;100357.18;1767075;80;21624;-66
2022/06/04 05:02:37;;;;;;;4.35;3.95;;;;;;;22.05;50.23;100363.49;1744118;81;21929;-65
2022/06/04 05:05:05;;;;;;;5.45;3.77;;;;;;;22.06;50.21;100364.37;1753173;80;21467;-66
2022/06/04 05:07:32;;;;;;;4.08;3.77;;;;;;;22.21;50.39;100367.16;1739172;81;21630;-66
2022/06/04 05:09:59;;;;;;;5.05;3.42;;;;;;;22.26;50.12;100374.34;1750860;80;21487;-66
2022/06/04 05:12:26;;;;;;;7.00;3.25;;;;;;;22.28;50.03;100368.41;1750176;81;20943;-66
2022/06/04 05:14:52;;;;;;;3.55;3.25;;;;;;;22.44;50.08;100368.00;1749032;80;21750;-67
2022/06/04 05:17:19;;;;;;;4.72;3.55;;;;;;;22.53;49.81;100363.73;1751812;80;21112;-66
2022/06/04 05:19:46;;;;;;;3.87;3.58;;;;;;;22.62;49.67;100365.66;1742368;80;21515;-66
2022/06/04 05:22:13;;;;;;;3.07;2.87;;;;;;;22.69;49.60;100371.35;1697724;82;21535;-66
2022/06/04 05:24:40;;;;;;;3.47;3.17;;;;;;;22.81;48.44;100367.67;1741915;81;21562;-66
2022/06/04 05:27:07;;;;;;;4.25;2.95;;;;;;;22.87;47.94;100352.41;1741776;80;21792;-66
2022/06/04 05:29:34;;;;;;;3.33;3.08;;;;;;;22.96;47.47;100363.34;1745686;81;21552;-66
2022/06/04 05:32:02;;;;;;;3.47;3.17;;;;;;;22.96;47.43;100358.82;1749897;81;21519;-66
2022/06/04 05:34:29;;;;;;;3.72;3.17;;;;;;;23.00;46.98;100354.05;1753688;80;21542;-67
2022/06/04 05:36:56;;;;;;;3.03;2.53;;;;;;;23.12;46.96;100363.30;1740255;80;20947;-66
2022/06/04 05:39:23;;;;;;;2.92;2.55;;;;;;;23.12;46.96;100363.30;1743223;81;21876;-68
2022/06/04 05:41:50;;;;;;;2.87;2.67;;;;;;;23.30;46.58;100358.23;1743463;80;21396;-69
2022/06/04 05:44:16;;;;;;;3.33;2.60;;;;;;;23.39;46.10;100357.91;1676158;83;21550;-60
2022/06/04 05:46:45;;;;;;;2.83;2.60;;;;;;;23.43;45.31;100355.82;1746252;81;21550;-59
2022/06/04 05:49:14;;;;;;;2.22;2.02;;;;;;;23.56;45.50;100357.81;1740564;80;21617;-60
2022/06/04 05:51:43;;;;;;;2.15;2.00;;;;;;;23.67;45.12;100356.89;1740826;80;21806;-60
2022/06/04 05:54:10;;;;;;;2.02;1.87;;;;;;;23.75;44.73;100354.88;1749241;80;21490;-59
2022/06/04 05:56:40;;;;;;;3.63;2.40;;;;;;;23.77;44.53;100357.81;1743399;80;21043;-60
2022/06/04 05:59:11;;;;;;;1.90;1.80;;;;;;;23.82;44.47;100349.37;1749369;80;21858;-60
2022/06/04 06:01:39;;;;;;;3.60;2.15;;;;;;;23.83;44.29;100345.22;1754526;80;21506;-60
2022/06/04 06:04:07;;;;;;;3.52;2.30;;;;;;;23.81;44.10;100350.34;1753328;80;21628;-61
2022/06/04 06:06:34;;;;;;;2.00;1.90;;;;;;;23.92;43.97;100350.75;1752393;80;21458;-59
2022/06/04 06:09:05;;;;;;;3.02;2.08;;;;;;;23.98;43.43;100344.83;1758916;80;25229;-60
2022/06/04 06:11:34;;;;;;;2.05;1.77;;;;;;;24.03;43.54;100343.95;1749711;80;21366;-59
2022/06/04 06:14:00;;;;;;;2.02;1.87;;;;;;;24.21;41.89;100341.48;1746031;80;21502;-59
2022/06/04 06:16:31;;;;;;;1.87;1.60;;;;;;;24.21;41.89;100341.48;1745958;80;22005;-59
2022/06/04 06:18:58;;;;;;;2.55;1.85;;;;;;;24.24;41.05;100334.47;1752999;80;21515;-58
2022/06/04 06:21:29;;;;;;;2.35;2.15;;;;;;;24.24;40.56;100332.66;1760979;80;21475;-58
2022/06/04 06:23:57;;;;;;;1.55;1.42;;;;;;;24.34;41.09;100332.67;1751407;80;21475;-58
2022/06/04 06:26:27;;;;;;;1.50;1.40;;;;;;;24.33;40.72;100329.61;1747325;80;21649;-61
2022/06/04 06:28:54;;;;;;;1.32;1.22;;;;;;;24.40;39.39;100331.27;1751666;80;22005;-64
2022/06/04 06:31:24;;;;;;;1.55;1.45;;;;;;;24.48;39.42;100322.84;1746693;80;21424;-66
2022/06/04 06:33:52;;;;;;;1.80;1.47;;;;;;;24.57;39.01;100326.58;1756584;80;21532;-60
2022/06/04 06:36:20;;;;;;;1.65;1.55;;;;;;;24.68;38.76;100321.58;1758221;80;21633;-63
2022/06/04 06:38:47;;;;;;;1.30;1.20;;;;;;;24.74;39.12;100317.48;1742944;80;21668;-60
2022/06/04 06:41:15;;;;;;;2.72;1.52;;;;;;;24.74;38.36;100306.73;1749898;80;21712;-61
2022/06/04 06:43:50;;;;;;;1.32;1.20;;;;;;;24.78;38.84;100304.95;1747061;80;21542;-59
2022/06/04 06:46:27;;;;;;;2.27;1.10;;;;;;;24.88;38.84;100304.94;1755682;80;21085;-59
2022/06/04 06:49:04;;;;;;;0.90;0.90;;;;;;;24.93;37.83;100301.84;1752967;80;21648;-60
2022/06/04 06:51:38;;;;;;;0.85;0.85;;;;;;;25.02;36.93;100302.33;1746797;80;21025;-60
2022/06/04 06:54:07;;;;;;;1.32;1.22;;;;;;;25.03;35.79;100299.50;1685061;83;21582;-61
2022/06/04 06:56:37;;;;;;;2.90;1.40;;;;;;;25.06;35.85;100303.73;1692303;83;21588;-57
2022/06/04 06:59:03;;;;;;;3.40;1.52;;;;;;;25.11;36.76;100299.26;1759288;80;21602;-58
2022/06/04 07:01:31;;;;;;;2.22;1.45;;;;;;;25.19;36.60;100299.41;1754316;80;21535;-58
2022/06/04 07:03:58;;;;;;;1.30;1.20;;;;;;;25.23;36.84;100292.27;1763335;80;21490;-58
2022/06/04 07:06:38;;;;;;;2.45;1.42;;;;;;;25.28;36.79;100296.36;1762790;80;21974;-58
2022/06/04 07:09:11;;;;;;;1.70;1.50;;;;;;;25.30;36.16;100284.47;1749606;80;21435;-58
2022/06/04 07:11:39;;;;;;;1.82;1.35;;;;;;;25.24;36.42;100280.99;1759275;80;21486;-60
2022/06/04 07:14:07;;;;;;;2.15;1.22;;;;;;;25.27;36.90;100269.11;1758168;80;21506;-63
2022/06/04 07:16:34;;;;;;;1.20;1.10;;;;;;;25.41;36.87;100274.02;1769354;80;21422;-63
2022/06/04 07:19:03;;;;;;;1.25;1.15;;;;;;;25.46;36.50;100262.31;1762471;80;20998;-63
2022/06/04 07:21:30;;;;;;;1.25;0.98;;;;;;;25.68;35.89;100264.30;1765828;80;21491;-62
2022/06/04 07:23:58;;;;;;;2.65;1.10;;;;;;;25.68;35.89;100264.30;1763723;80;21523;-63
2022/06/04 07:26:26;;;;;;;1.00;1.00;;;;;;;25.70;35.42;100259.11;1754190;80;21536;-63
2022/06/04 07:28:53;;;;;;;2.60;0.98;;;;;;;25.78;34.91;100257.86;1758814;80;21672;-63
2022/06/04 07:31:19;;;;;;;1.10;0.88;;;;;;;25.90;34.90;100258.53;1768008;80;21803;-63
2022/06/04 07:33:47;;;;;;;1.62;0.95;;;;;;;25.92;34.48;100261.95;1769190;80;21542;-63
2022/06/04 07:36:17;;;;;;;1.35;1.10;;;;;;;25.97;33.97;100256.94;1763800;80;21440;-62
2022/06/04 07:38:45;;;;;;;2.62;1.20;;;;;;;26.07;34.62;100253.34;1766335;80;21646;-63
2022/06/04 07:41:26;;;;;;;1.02;1.02;;;;;;;26.12;33.75;100248.36;1758776;80;21452;-64
2022/06/04 07:43:54;;;;;;;1.25;1.15;;;;;;;26.12;32.71;100241.62;1763333;80;21891;-62
2022/06/04 07:46:22;;;;;;;1.20;0.98;;;;;;;25.99;32.58;100241.50;1756357;80;21570;-63
2022/06/04 07:48:48;;;;;;;0.98;0.90;;;;;;;25.99;33.19;100246.02;1755131;80;21549;-64
2022/06/04 07:51:15;;;;;;;1.90;1.00;;;;;;;26.07;33.69;100252.86;1749185;80;21512;-64
2022/06/04 07:53:44;;;;;;;1.25;1.22;;;;;;;26.19;32.47;100252.14;1750855;80;21550;-64
2022/06/04 07:56:14;;;;;;;4.42;1.22;;;;;;;26.19;32.47;100252.14;1748162;80;21768;-62
2022/06/04 07:58:40;;;;;;;1.12;0.95;;;;;;;26.36;31.89;100243.73;1748085;80;21026;-62
2022/06/04 08:01:08;;;;;;;1.00;1.00;;;;;;;26.36;31.89;100243.73;1757461;80;21530;-62
2022/06/04 08:03:35;;;;;;;3.42;1.20;;;;;;;26.33;31.60;100245.37;1693987;82;21555;-62
2022/06/04 08:06:04;;;;;;;1.47;1.10;;;;;;;26.22;30.78;100231.64;1744727;80;21451;-62
2022/06/04 08:08:32;;;;;;;1.90;0.90;;;;;;;26.22;30.78;100231.64;1752445;80;21941;-62
2022/06/04 08:10:59;;;;;;;2.35;1.20;;;;;;;26.27;31.11;100229.81;1758387;80;21555;-61
2022/06/04 08:13:26;;;;;;;2.15;1.30;;;;;;;26.23;31.71;100227.41;1763476;80;21439;-62
2022/06/04 08:15:56;;;;;;;1.10;1.10;;;;;;;26.48;32.52;100229.51;1749039;80;21459;-62
2022/06/04 08:18:24;;;;;;;1.10;1.00;;;;;;;26.48;32.52;100229.51;1753173;80;20991;-62
2022/06/04 08:20:51;;;;;;;2.17;1.15;;;;;;;26.54;32.91;100231.10;1763852;80;22009;-62
2022/06/04 08:23:18;;;;;;;1.30;1.20;;;;;;;26.42;32.37;100227.77;1743692;80;21590;-62
2022/06/04 08:25:47;;;;;;;1.00;1.00;;;;;;;26.42;32.91;100228.28;1752140;80;21455;-62
2022/06/04 08:28:15;;;;;;;1.00;1.00;;;;;;;26.45;32.64;100220.37;1750269;80;21419;-61
2022/06/04 08:30:42;;;;;;;1.32;1.22;;;;;;;26.55;33.45;100218.45;1757524;80;21419;-61
2022/06/04 08:33:09;;;;;;;2.05;1.02;;;;;;;26.72;33.02;100220.31;1756807;80;21732;-62
2022/06/04 08:35:36;;;;;;;1.60;1.10;;;;;;;26.85;32.53;100222.61;1760628;80;21419;-63
2022/06/04 08:38:03;;;;;;;1.52;1.20;;;;;;;26.91;32.34;100218.44;1748346;80;21533;-62
2022/06/04 08:40:37;;;;;;;1.60;1.17;;;;;;;26.99;31.72;100215.30;1751368;80;21531;-62
2022/06/04 08:43:42;;;;;;;1.00;1.00;;;;;;;27.05;31.65;100223.27;1747047;80;21843;-61
2022/06/04 08:46:37;;;;;;;1.30;0.90;;;;;;;27.15;31.73;100217.76;1751128;80;21808;-62
2022/06/04 08:49:14;;;;;;;1.67;1.10;;;;;;;27.22;30.86;100207.16;1656355;85;21069;-61
2022/06/04 08:51:42;;;;;;;1.42;1.10;;;;;;;27.28;31.23;100203.88;1653314;85;21601;-63
2022/06/04 08:59:46;;;;;;;1.00;1.00;;;;;;;27.43;30.71;100199.55;1660073;85;21921;-61
2022/06/04 09:02:21;;;;;;;1.00;1.00;;;;;;;27.41;30.93;100197.52;1656118;85;21565;-62
2022/06/04 09:05:08;;;;;;;1.12;1.00;;;;;;;27.42;29.91;100199.20;1657768;84;21544;-67
2022/06/04 09:07:40;;;;;;;1.10;1.10;;;;;;;27.49;30.51;100192.66;1656698;84;21698;-64
2022/06/04 09:10:21;;;;;;;1.52;1.27;;;;;;;27.61;30.20;100190.51;1658999;84;21529;-62
2022/06/04 09:12:59;;;;;;;1.22;1.20;;;;;;;27.63;29.88;100193.89;1657256;84;21568;-66
2022/06/04 09:15:34;;;;;;;1.90;1.25;;;;;;;27.61;30.29;100199.96;1652761;86;21072;-60
2022/06/04 09:18:13;;;;;;;7.58;1.02;;;;;;;27.67;30.26;100193.90;1655285;84;21561;-60
2022/06/04 09:20:48;;;;;;;1.52;1.00;;;;;;;27.74;29.88;100189.54;1654035;84;21711;-60
2022/06/04 09:23:29;;;;;;;0.95;0.95;;;;;;;27.87;30.28;100183.67;1658834;84;21361;-61
2022/06/04 09:26:16;;;;;;;1.25;0.98;;;;;;;27.87;30.28;100183.67;1653589;84;21961;-60
2022/06/04 09:29:08;;;;;;;1.57;1.20;;;;;;;27.83;30.97;100180.97;1656486;84;21425;-60
2022/06/04 09:32:12;;;;;;;3.05;0.90;;;;;;;27.83;30.50;100176.40;1646498;84;21571;-62
2022/06/04 09:34:44;;;;;;;1.02;1.00;;;;;;;27.80;30.69;100174.02;1660575;84;21077;-62
2022/06/04 09:37:10;;;;;;;1.15;0.90;;;;;;;27.88;30.15;100168.66;1659627;84;21541;-60
2022/06/04 09:39:42;;;;;;;1.40;1.10;;;;;;;27.99;30.28;100174.30;1661029;84;21654;-60
2022/06/04 09:42:20;;;;;;;1.47;1.30;;;;;;;27.80;30.37;100171.31;1654840;84;21593;-63
2022/06/04 09:44:58;;;;;;;1.00;1.00;;;;;;;27.80;30.18;100170.48;1656203;84;20972;-62
2022/06/04 09:47:40;;;;;;;1.10;1.10;;;;;;;27.60;30.09;100168.06;1661263;84;21614;-59
2022/06/04 09:50:32;;;;;;;1.35;1.25;;;;;;;27.80;30.31;100163.20;1620530;87;21018;-62
2022/06/04 09:56:09;;;;;;;0.95;0.95;;;;;;;27.77;29.70;100161.70;1670046;83;21044;-63
2022/06/04 09:58:41;;;;;;;1.15;1.10;;;;;;;27.87;30.38;100162.89;1670095;83;21444;-66
2022/06/04 10:01:18;;;;;;;2.05;1.12;;;;;;;27.75;30.17;100169.13;1668955;83;22196;-66
2022/06/04 10:03:48;;;;;;;1.10;1.00;;;;;;;27.97;30.35;100164.12;1666236;85;21439;-65
2022/06/04 10:06:16;;;;;;;2.35;1.10;;;;;;;28.19;29.90;100163.16;1632810;87;22062;-65
2022/06/04 10:11:54;;;;;;;1.20;1.10;;;;;;;28.23;29.64;100165.34;1618665;86;21618;-66
2022/06/04 10:14:39;;;;;;;0.93;0.93;;;;;;;28.28;29.46;100159.45;1629734;85;21509;-66
2022/06/04 10:17:17;;;;;;;2.25;1.10;;;;;;;28.28;29.77;100154.88;1636029;85;21428;-67
2022/06/04 10:19:51;;;;;;;;;;;;;;;28.29;29.13;100149.83;1626407;86;21920;-68
2022/06/04 10:22:18;;;;;;;3.72;1.22;;;;;;;28.01;28.20;100144.38;1621964;86;20191;-67
2022/06/04 10:24:55;;;;;;;5.15;1.25;;;;;;;27.78;29.31;100136.88;1619367;87;21587;-66
2022/06/04 10:27:38;;;;;;;3.33;1.10;;;;;;;27.66;29.61;100137.69;1619570;87;21508;-66
2022/06/04 10:30:24;;;;;;;1.65;1.00;;;;;;;27.86;30.84;100138.74;1620394;87;21449;-67
2022/06/04 10:33:22;;;;;;;2.92;1.40;;;;;;;28.12;30.15;100136.81;1622964;86;21938;-66
2022/06/04 10:36:21;;;;;;;1.45;1.20;;;;;;;28.30;29.97;100135.28;1670019;83;21512;-65
2022/06/04 10:39:17;;;;;;;1.72;1.17;;;;;;;28.50;29.07;100128.16;1669072;83;21428;-68
2022/06/04 10:42:06;;;;;;;1.95;1.12;;;;;;;28.40;28.46;100126.16;1666185;83;21701;-67
2022/06/04 10:45:00;;;;;;;1.05;0.90;;;;;;;28.30;29.58;100120.92;1664522;85;21460;-66
2022/06/04 10:47:35;;;;;;;1.42;1.22;;;;;;;28.30;28.85;100124.47;1596687;87;21746;-65
2022/06/04 10:50:31;;;;;;;2.10;1.07;;;;;;;28.57;28.28;100125.67;1667988;83;21583;-66
2022/06/04 10:53:15;;;;;;;1.82;1.30;;;;;;;28.64;28.94;100123.45;1665472;83;21443;-66
2022/06/04 10:55:53;;;;;;;1.20;1.10;;;;;;;28.77;28.43;100122.94;1650463;85;21519;-65
2022/06/04 10:58:37;;;;;;;2.60;1.45;;;;;;;29.20;27.48;100118.10;1640547;86;21611;-66
2022/06/04 11:01:21;;;;;;;1.87;1.20;;;;;;;29.33;27.86;100118.03;1639639;86;21954;-65
2022/06/04 11:03:55;;;;;;;1.15;1.05;;;;;;;29.60;27.48;100119.44;1647010;85;21543;-66
2022/06/04 11:06:29;;;;;;;1.32;1.25;;;;;;;29.85;26.47;100116.92;1648367;85;21515;-66
2022/06/04 11:09:18;;;;;;;1.72;1.25;;;;;;;29.79;26.18;100114.94;1645504;85;21467;-67
2022/06/04 11:11:53;;;;;;;0.90;0.90;;;;;;;29.83;26.88;100107.30;1628596;86;21444;-66
2022/06/04 11:14:40;;;;;;;1.30;1.20;;;;;;;30.03;26.82;100111.22;1579193;88;22182;-66
2022/06/04 11:17:24;;;;;;;3.02;1.07;;;;;;;30.08;27.15;100105.24;1644809;85;21606;-66
2022/06/04 11:20:08;;;;;;;1.00;1.00;;;;;;;29.99;27.03;100103.61;1644238;85;21527;-68
2022/06/04 11:22:38;;;;;;;1.17;1.10;;;;;;;30.03;27.15;100099.55;1644588;85;21490;-67
2022/06/04 11:25:27;;;;;;;3.58;1.00;;;;;;;30.15;27.37;100100.78;1641398;86;21500;-66
2022/06/04 11:28:01;;;;;;;1.10;1.00;;;;;;;30.24;26.63;100098.34;1647464;85;22402;-66
2022/06/04 11:31:01;;;;;;;1.90;1.15;;;;;;;30.32;25.91;100089.80;1649011;85;21464;-66
2022/06/04 11:33:53;;;;;;;0.90;0.90;;;;;;;30.48;25.60;100081.55;1587684;85;21476;-66
2022/06/04 11:36:49;;;;;;;1.00;1.00;;;;;;;30.42;25.56;100074.13;1647168;86;21616;-67
2022/06/04 11:39:42;;;;;;;2.40;1.15;;;;;;;30.52;25.79;100066.59;1649703;85;21608;-66
2022/06/04 11:42:33;;;;;;;1.05;1.00;;;;;;;30.66;25.37;100065.73;1641060;86;21933;-66
2022/06/04 11:45:41;;;;;;;3.17;1.00;;;;;;;30.78;25.03;100055.77;1639216;86;21433;-66
2022/06/04 11:48:31;;;;;;;1.42;1.32;;;;;;;30.85;25.40;100066.22;1638852;86;21461;-66
2022/06/04 11:51:43;;;;;;;2.42;1.00;;;;;;;30.69;25.90;100060.47;1566873;89;21039;-66
2022/06/04 11:54:30;;;;;;;5.42;1.20;;;;;;;30.50;25.24;100057.80;1599490;87;21541;-66
2022/06/04 11:57:15;;;;;;;1.67;1.22;;;;;;;30.46;25.57;100051.06;1614543;87;21816;-66
2022/06/04 12:00:21;;;;;;;1.30;1.00;;;;;;;30.59;25.52;100049.03;1615414;87;21127;-69
2022/06/04 12:03:15;;;;;;;2.75;1.20;;;;;;;30.57;26.18;100041.11;1620775;87;21567;-66
2022/06/04 12:05:59;;;;;;;1.22;1.10;;;;;;;30.49;26.89;100042.53;1617424;87;21560;-66
2022/06/04 12:08:30;;;;;;;1.35;1.17;;;;;;;30.51;26.24;100039.12;1617334;87;21620;-66
2022/06/04 12:11:34;;;;;;;0.90;0.90;;;;;;;30.53;26.13;100031.62;1612128;87;21549;-66
2022/06/04 12:14:23;;;;;;;2.05;1.27;;;;;;;30.44;26.25;100038.17;1614797;86;21478;-66
2022/06/04 12:17:17;;;;;;;1.00;1.00;;;;;;;30.27;26.52;100043.75;1612600;87;21556;-66
2022/06/04 12:25:45;;;;;;;2.35;1.25;;;;;;;30.59;26.10;100025.48;1611210;87;21943;-66